Time;durP1;ratioP1;P1;durP2;ratioP2;P2;SDS_P1;SDS_P2;PMS_P1;PMS_P2;Temp;Humidity;BMP_temperature;BMP_pressure;BME280_temperature;BME280_humidity;BME280_pressure;Samples;Min_cycle;Max_cycle;Signal;HPM_P1;HPM_P2
2022/10/23 00:00:49;;;;;;;7.90;2.67;;;;;;;11.03;100.00;101070.78;5999486;28;20027;-66
2022/10/23 00:03:44;;;;;;;6.87;2.87;;;;;;;11.07;100.00;101077.47;6000391;28;20023;-67
2022/10/23 00:06:40;;;;;;;7.38;2.70;;;;;;;10.86;100.00;101074.13;6000551;28;20286;-66
2022/10/23 00:09:35;;;;;;;5.15;2.83;;;;;;;10.92;100.00;101063.78;6000487;28;20034;-66
2022/10/23 00:12:31;;;;;;;6.90;2.80;;;;;;;11.03;100.00;101066.31;5989865;28;20038;-66
2022/10/23 00:15:26;;;;;;;7.85;2.75;;;;;;;11.05;100.00;101074.97;6000765;28;20261;-66
2022/10/23 00:18:21;;;;;;;8.27;3.03;;;;;;;11.09;100.00;101065.72;6000297;28;20093;-67
2022/10/23 00:21:17;;;;;;;6.72;2.90;;;;;;;10.92;100.00;101081.53;5999805;28;20089;-67
2022/10/23 00:24:13;;;;;;;10.20;3.17;;;;;;;10.93;100.00;101076.06;5999590;28;20063;-66
2022/10/23 00:27:08;;;;;;;10.13;3.10;;;;;;;10.81;100.00;101063.09;5999921;28;20031;-66
2022/10/23 00:30:04;;;;;;;9.38;3.42;;;;;;;10.93;100.00;101080.53;5999743;28;20030;-66
2022/10/23 00:33:00;;;;;;;8.85;4.18;;;;;;;10.87;100.00;101070.50;5999699;28;20494;-66
2022/10/23 00:35:55;;;;;;;7.83;3.20;;;;;;;10.82;100.00;101073.53;5999927;28;20046;-66
2022/10/23 00:38:50;;;;;;;9.17;4.00;;;;;;;10.93;100.00;101072.56;5996406;28;20079;-67
2022/10/23 00:41:46;;;;;;;7.78;3.17;;;;;;;10.95;100.00;101067.97;5998975;28;20027;-67
2022/10/23 00:44:41;;;;;;;10.73;3.10;;;;;;;11.08;100.00;101073.84;5999923;28;20041;-67
2022/10/23 00:47:37;;;;;;;6.13;3.80;;;;;;;11.01;100.00;101075.34;5999424;28;20031;-67
2022/10/23 00:50:32;;;;;;;5.85;3.25;;;;;;;11.12;100.00;101088.50;5999154;28;20443;-67
2022/10/23 00:53:28;;;;;;;8.90;3.53;;;;;;;11.20;100.00;101089.47;5999558;28;20034;-66
2022/10/23 00:56:25;;;;;;;9.37;2.80;;;;;;;11.32;100.00;101083.03;5999240;28;20274;-67
2022/10/23 00:59:20;;;;;;;9.45;3.35;;;;;;;11.22;100.00;101076.06;5998707;28;20285;-67
2022/10/23 01:02:17;;;;;;;9.20;3.58;;;;;;;11.37;100.00;101090.56;5998723;28;20042;-67
2022/10/23 01:05:12;;;;;;;12.07;3.40;;;;;;;11.45;100.00;101074.75;5999572;28;20113;-67
2022/10/23 01:08:31;;;;;;;9.68;2.95;;;;;;;11.41;100.00;101081.34;5997819;28;20053;-66
2022/10/23 01:11:28;;;;;;;8.18;2.97;;;;;;;10.99;100.00;101066.72;6013702;28;20039;-67
2022/10/23 01:14:42;;;;;;;10.90;3.75;;;;;;;10.89;100.00;101074.69;5998967;28;20472;-66
2022/10/23 01:17:56;;;;;;;10.38;3.38;;;;;;;11.06;100.00;101073.97;5998157;28;20045;-67
2022/10/23 01:20:56;;;;;;;;;;;;;;;11.02;100.00;101063.78;5997565;28;20458;-67
2022/10/23 01:24:14;;;;;;;7.53;3.40;;;;;;;10.91;100.00;101061.25;5999283;28;19921;-67
2022/10/23 01:27:22;;;;;;;11.93;4.07;;;;;;;10.99;100.00;101061.41;5997688;28;20118;-67
2022/10/23 01:30:17;;;;;;;7.75;3.72;;;;;;;10.93;100.00;101059.28;5997249;28;20034;-67
2022/10/23 01:33:25;;;;;;;10.47;3.30;;;;;;;10.70;100.00;101048.13;5998882;28;20054;-67
2022/10/23 01:36:23;;;;;;;6.95;2.90;;;;;;;10.67;100.00;101048.41;5998096;28;20457;-67
2022/10/23 01:39:29;;;;;;;7.57;3.05;;;;;;;10.67;100.00;101057.22;5997724;28;20042;-67
2022/10/23 01:42:35;;;;;;;9.13;3.35;;;;;;;10.65;100.00;101053.84;5998485;28;20506;-67
2022/10/23 01:45:37;;;;;;;12.82;3.90;;;;;;;10.65;100.00;101053.84;5997608;28;20105;-67
2022/10/23 01:48:34;;;;;;;6.45;3.03;;;;;;;10.69;100.00;101065.03;5998904;28;20043;-67
2022/10/23 01:51:31;;;;;;;8.77;3.13;;;;;;;10.55;100.00;101050.34;5998372;28;20035;-66
2022/10/23 01:54:31;;;;;;;9.88;3.58;;;;;;;10.58;100.00;101058.03;5997323;28;20054;-67
2022/10/23 01:57:29;;;;;;;9.27;3.33;;;;;;;10.58;100.00;101039.47;5984728;28;20031;-66
2022/10/23 02:00:24;;;;;;;6.22;2.97;;;;;;;10.51;100.00;101022.44;5997672;28;20442;-67
2022/10/23 02:03:20;;;;;;;9.53;3.43;;;;;;;10.56;100.00;101040.59;5998419;28;20062;-66
2022/10/23 02:06:15;;;;;;;7.55;3.03;;;;;;;10.39;100.00;101028.84;5997522;28;20290;-66
2022/10/23 02:09:11;;;;;;;9.10;3.72;;;;;;;10.42;100.00;101033.03;5982026;28;20027;-66
2022/10/23 02:12:08;;;;;;;12.17;3.43;;;;;;;10.33;100.00;101029.38;5994552;28;20031;-66
2022/10/23 02:15:12;;;;;;;10.77;3.85;;;;;;;10.23;100.00;101015.28;5997081;28;20281;-66
2022/10/23 02:18:26;;;;;;;7.78;3.20;;;;;;;10.17;100.00;101023.75;5997443;28;20030;-66
2022/10/23 02:21:33;;;;;;;11.27;3.63;;;;;;;10.23;100.00;101032.97;5996479;28;20031;-66
2022/10/23 02:24:33;;;;;;;7.57;3.28;;;;;;;10.23;100.00;101030.34;5998818;28;20041;-67
2022/10/23 02:27:38;;;;;;;9.05;3.58;;;;;;;10.09;100.00;101016.47;6001523;28;20034;-66
2022/10/23 02:30:36;;;;;;;7.32;4.15;;;;;;;10.20;100.00;101025.31;6002259;28;20479;-66
2022/10/23 02:33:33;;;;;;;6.57;3.35;;;;;;;10.13;100.00;101032.97;6001676;28;20031;-67
2022/10/23 02:36:28;;;;;;;8.80;3.33;;;;;;;10.14;100.00;101024.03;5994996;28;20035;-66
2022/10/23 02:39:25;;;;;;;8.30;2.93;;;;;;;10.05;100.00;101020.38;6001134;28;20038;-67
2022/10/23 02:42:35;;;;;;;8.23;3.28;;;;;;;10.05;100.00;101019.53;6000461;28;20686;-67
2022/10/23 02:45:31;;;;;;;9.30;5.35;;;;;;;10.10;100.00;101022.59;6001272;28;20038;-67
2022/10/23 02:48:44;;;;;;;9.50;3.97;;;;;;;10.05;100.00;101008.94;6001206;28;20117;-67
2022/10/23 02:51:47;;;;;;;8.02;3.50;;;;;;;10.03;100.00;101000.25;5999954;28;20046;-67
2022/10/23 02:55:02;;;;;;;12.32;4.18;;;;;;;10.05;100.00;101016.88;6002078;28;20483;-67
2022/10/23 02:58:07;;;;;;;10.50;4.10;;;;;;;10.08;100.00;101016.63;6001254;28;20035;-66
2022/10/23 03:01:26;;;;;;;9.38;4.20;;;;;;;9.94;100.00;101006.38;6001526;28;20043;-66
2022/10/23 03:04:23;;;;;;;15.45;4.85;;;;;;;10.00;100.00;101011.16;6001323;28;20034;-66
2022/10/23 03:07:18;;;;;;;9.25;4.40;;;;;;;9.93;100.00;101004.69;6000410;28;20030;-66
2022/10/23 03:10:14;;;;;;;10.82;3.53;;;;;;;9.97;100.00;101008.78;6001220;28;20085;-66
2022/10/23 03:13:10;;;;;;;10.73;4.45;;;;;;;9.94;100.00;101011.69;6001837;28;20451;-66
2022/10/23 03:16:05;;;;;;;10.05;4.40;;;;;;;9.92;100.00;101011.00;6001514;28;20447;-66
2022/10/23 03:19:01;;;;;;;10.60;4.45;;;;;;;9.83;100.00;101003.84;5988549;28;20050;-66
2022/10/23 03:21:57;;;;;;;10.13;4.50;;;;;;;9.93;100.00;101004.69;5990827;28;20047;-66
2022/10/23 03:24:53;;;;;;;8.32;3.72;;;;;;;9.96;100.00;101007.09;6001846;28;20474;-66
2022/10/23 03:27:48;;;;;;;8.13;3.63;;;;;;;9.93;100.00;101005.53;6001507;28;20038;-66
2022/10/23 03:30:43;;;;;;;11.47;4.00;;;;;;;9.86;100.00;100990.31;6001032;28;20058;-66
2022/10/23 03:33:39;;;;;;;8.63;3.67;;;;;;;9.93;100.00;100996.75;6000815;28;20034;-66
2022/10/23 03:36:34;;;;;;;7.63;3.70;;;;;;;9.82;100.00;100976.50;6001103;28;20037;-66
2022/10/23 03:39:30;;;;;;;10.85;4.50;;;;;;;9.80;100.00;100980.25;6001268;28;20375;-67
2022/10/23 03:42:25;;;;;;;11.25;3.72;;;;;;;9.78;100.00;100968.97;6000657;28;20035;-67
2022/10/23 03:45:20;;;;;;;13.20;3.63;;;;;;;9.84;100.00;100969.25;6000329;28;20130;-67
2022/10/23 03:48:16;;;;;;;10.57;4.30;;;;;;;9.73;100.00;100969.34;6001412;28;20035;-66
2022/10/23 03:51:12;;;;;;;14.60;4.17;;;;;;;9.75;100.00;100975.38;6000369;28;20026;-67
2022/10/23 03:54:07;;;;;;;14.70;4.70;;;;;;;9.72;100.00;100970.34;6000997;28;20626;-67
2022/10/23 03:57:03;;;;;;;10.63;3.80;;;;;;;9.81;100.00;100979.31;6000911;28;20050;-67
2022/10/23 03:59:58;;;;;;;15.45;4.68;;;;;;;9.71;100.00;100970.47;5999693;28;20784;-66
2022/10/23 04:02:54;;;;;;;17.53;4.37;;;;;;;9.72;100.00;100970.34;6000293;28;20637;-66
2022/10/23 04:05:49;;;;;;;10.93;4.43;;;;;;;9.80;100.00;100974.97;6000200;28;20035;-66
2022/10/23 04:08:44;;;;;;;12.70;4.07;;;;;;;9.83;100.00;100978.19;6000654;28;20047;-66
2022/10/23 04:11:40;;;;;;;10.53;4.03;;;;;;;9.80;100.00;100980.25;5999976;28;20062;-66
2022/10/23 04:14:35;;;;;;;10.50;4.70;;;;;;;9.76;100.00;100965.59;6000013;28;21062;-66
2022/10/23 04:17:30;;;;;;;10.70;4.13;;;;;;;9.80;100.00;100972.31;6000625;28;20034;-66
2022/10/23 04:20:26;;;;;;;18.00;5.20;;;;;;;9.74;100.00;100968.41;5999416;28;20430;-66
2022/10/23 04:23:21;;;;;;;15.37;4.90;;;;;;;9.73;100.00;100976.50;6000534;28;20023;-66
2022/10/23 04:26:16;;;;;;;13.73;5.03;;;;;;;9.78;100.00;100990.16;6000150;28;20038;-66
2022/10/23 04:29:12;;;;;;;8.17;4.33;;;;;;;9.77;100.00;100988.47;5999565;28;20278;-66
2022/10/23 04:32:07;;;;;;;14.00;4.77;;;;;;;9.73;100.00;100976.50;6000171;28;20262;-66
2022/10/23 04:35:03;;;;;;;13.97;5.07;;;;;;;9.80;100.00;100990.84;6000181;28;20483;-66
2022/10/23 04:37:58;;;;;;;17.20;5.03;;;;;;;9.76;100.00;100986.78;6000205;28;20554;-66
2022/10/23 04:40:53;;;;;;;14.03;4.73;;;;;;;9.73;100.00;100977.31;5999341;28;20517;-66
2022/10/23 04:43:49;;;;;;;13.53;5.03;;;;;;;9.71;100.00;100967.81;5999183;28;20034;-66
2022/10/23 04:46:44;;;;;;;11.43;4.37;;;;;;;9.66;100.00;100970.88;5999026;28;20030;-66
2022/10/23 04:49:39;;;;;;;11.53;5.10;;;;;;;9.75;100.00;100987.78;5999440;28;20282;-66
2022/10/23 04:52:34;;;;;;;13.07;4.50;;;;;;;9.63;100.00;100970.28;5999231;28;20035;-66
2022/10/23 04:55:30;;;;;;;9.70;3.97;;;;;;;9.63;100.00;100975.59;5998798;28;20494;-66
2022/10/23 04:58:26;;;;;;;8.83;4.63;;;;;;;9.52;100.00;100961.50;5999111;28;20360;-66
2022/10/23 05:01:22;;;;;;;10.45;4.28;;;;;;;9.53;100.00;100973.75;5992402;28;20358;-66
2022/10/23 05:04:18;;;;;;;10.13;4.30;;;;;;;9.43;100.00;100969.41;5994722;28;20035;-66
2022/10/23 05:07:13;;;;;;;12.77;4.47;;;;;;;9.52;100.00;100980.03;5999474;28;20023;-66
2022/10/23 05:10:09;;;;;;;9.37;5.03;;;;;;;9.45;100.00;100963.00;5998203;28;20033;-67
2022/10/23 05:13:04;;;;;;;8.27;3.80;;;;;;;9.44;100.00;100961.31;5998470;28;20125;-67
2022/10/23 05:16:00;;;;;;;12.45;4.38;;;;;;;9.48;100.00;100973.28;5998577;28;20113;-66
2022/10/23 05:18:55;;;;;;;17.67;5.50;;;;;;;9.45;100.00;100965.66;5997890;28;20039;-66
2022/10/23 05:21:54;;;;;;;10.63;4.60;;;;;;;9.46;100.00;100959.38;5998287;28;20026;-66
2022/10/23 05:24:50;;;;;;;12.02;4.68;;;;;;;9.50;100.00;100955.50;5998731;28;20030;-66
2022/10/23 05:27:45;;;;;;;12.55;3.97;;;;;;;9.49;100.00;100955.59;5997458;28;20082;-66
2022/10/23 05:30:41;;;;;;;10.47;4.30;;;;;;;9.48;100.00;100952.13;5997418;28;20642;-66
2022/10/23 05:33:36;;;;;;;12.35;5.72;;;;;;;9.46;100.00;100954.06;5985841;28;20356;-66
2022/10/23 05:36:33;;;;;;;10.77;5.80;;;;;;;9.46;100.00;100942.63;5997462;28;20138;-66
2022/10/23 05:39:28;;;;;;;13.68;4.82;;;;;;;9.54;100.00;100961.34;5998372;28;20034;-66
2022/10/23 05:42:24;;;;;;;13.23;5.37;;;;;;;9.54;100.00;100942.81;5998345;28;20039;-66
2022/10/23 05:45:19;;;;;;;10.83;4.37;;;;;;;9.61;100.00;100943.13;5995078;28;20078;-66
2022/10/23 05:48:15;;;;;;;14.32;4.68;;;;;;;9.50;100.00;100920.25;5989861;28;20043;-66
2022/10/23 05:51:17;;;;;;;9.45;4.38;;;;;;;9.63;100.00;100943.81;5998011;28;20106;-66
2022/10/23 05:54:13;;;;;;;11.30;5.07;;;;;;;9.62;100.00;100950.91;5998184;28;20043;-66
2022/10/23 05:57:08;;;;;;;12.17;4.80;;;;;;;9.65;100.00;100955.13;5998297;28;20058;-66
2022/10/23 06:00:04;;;;;;;10.03;4.60;;;;;;;9.58;100.00;100939.78;5998759;28;20031;-67
2022/10/23 06:03:00;;;;;;;13.70;5.05;;;;;;;9.68;100.00;100952.19;6003174;28;20043;-66
2022/10/23 06:05:56;;;;;;;12.35;4.55;;;;;;;9.67;100.00;100950.53;6002940;28;20039;-67
2022/10/23 06:08:51;;;;;;;13.53;4.37;;;;;;;9.60;100.00;100934.34;6002557;28;20065;-67
2022/10/23 06:11:46;;;;;;;13.90;4.75;;;;;;;9.57;100.00;100940.75;6002808;28;20417;-66
2022/10/23 06:14:42;;;;;;;10.23;4.30;;;;;;;9.67;100.00;100951.38;6002022;28;20038;-67
2022/10/23 06:17:37;;;;;;;10.80;4.50;;;;;;;9.63;100.00;100938.53;6003179;28;20118;-67
2022/10/23 06:20:36;;;;;;;10.40;4.40;;;;;;;9.59;100.00;100928.19;6002043;28;20035;-66
2022/10/23 06:23:33;;;;;;;10.05;4.10;;;;;;;9.62;100.00;100939.50;6000744;28;20372;-66
2022/10/23 06:26:28;;;;;;;12.68;5.72;;;;;;;9.60;100.00;100923.75;6002389;28;20046;-66
2022/10/23 06:29:24;;;;;;;9.00;4.63;;;;;;;9.65;100.00;100936.59;6001708;28;20035;-66
2022/10/23 06:32:19;;;;;;;11.13;4.87;;;;;;;9.63;100.00;100933.22;5990195;28;20058;-66
2022/10/23 06:35:14;;;;;;;10.82;4.18;;;;;;;9.56;100.00;100932.94;6002562;28;20236;-67
2022/10/23 06:38:11;;;;;;;8.02;4.45;;;;;;;9.68;100.00;100952.19;6002047;28;20537;-67
2022/10/23 06:41:11;;;;;;;14.05;4.18;;;;;;;9.66;100.00;100949.69;6001517;28;20073;-66
2022/10/23 06:44:09;;;;;;;10.57;4.95;;;;;;;9.69;100.00;100944.13;6001862;28;20124;-66
2022/10/23 06:47:05;;;;;;;10.88;3.92;;;;;;;9.65;100.00;100941.91;6002247;28;20027;-66
2022/10/23 06:50:00;;;;;;;12.27;4.22;;;;;;;9.71;100.00;100946.63;6001830;28;20113;-66
2022/10/23 06:52:56;;;;;;;9.60;4.40;;;;;;;9.73;100.00;100958.75;5991099;28;20027;-66
2022/10/23 06:55:51;;;;;;;12.32;4.68;;;;;;;9.76;100.00;100955.84;5999241;28;20045;-66
2022/10/23 06:58:46;;;;;;;9.37;4.10;;;;;;;9.72;100.00;100943.03;6002261;28;20529;-66
2022/10/23 07:01:42;;;;;;;9.70;4.67;;;;;;;9.77;100.00;100939.00;6001070;28;20053;-66
2022/10/23 07:04:38;;;;;;;9.73;4.40;;;;;;;9.97;100.00;100945.19;6002041;28;20064;-66
2022/10/23 07:07:34;;;;;;;12.32;4.25;;;;;;;10.01;100.00;100938.63;6002313;28;20054;-66
2022/10/23 07:10:29;;;;;;;9.30;4.07;;;;;;;10.04;100.00;100918.00;6000825;28;20031;-67
2022/10/23 07:13:25;;;;;;;8.50;4.50;;;;;;;10.19;100.00;100925.59;5991241;28;20380;-66
2022/10/23 07:16:21;;;;;;;9.37;3.80;;;;;;;10.28;100.00;100930.88;5998435;28;20498;-66
2022/10/23 07:19:16;;;;;;;12.45;5.03;;;;;;;10.37;100.00;100924.75;5990215;28;20282;-66
2022/10/23 07:22:12;;;;;;;10.70;3.63;;;;;;;10.39;100.00;100932.56;6001478;28;20049;-66
2022/10/23 07:25:08;;;;;;;9.07;4.25;;;;;;;10.43;100.00;100918.91;6001652;28;20603;-66
2022/10/23 07:28:03;;;;;;;8.38;4.13;;;;;;;10.48;100.00;100921.97;6001430;28;20019;-65
2022/10/23 07:30:59;;;;;;;14.10;4.45;;;;;;;10.49;100.00;100918.31;6000437;28;20030;-66
2022/10/23 07:33:55;;;;;;;8.48;3.92;;;;;;;10.58;100.00;100928.09;5995738;28;20139;-66
2022/10/23 07:36:50;;;;;;;8.87;4.50;;;;;;;10.61;100.00;100922.50;6001277;28;20090;-66
2022/10/23 07:39:45;;;;;;;11.47;4.37;;;;;;;10.60;100.00;100914.69;6001313;28;20054;-66
2022/10/23 07:42:41;;;;;;;7.30;3.83;;;;;;;10.60;100.00;100912.03;6000546;28;20749;-66
2022/10/23 07:45:36;;;;;;;10.73;3.80;;;;;;;10.69;100.00;100912.03;6001413;28;20259;-66
2022/10/23 07:48:31;;;;;;;8.93;4.27;;;;;;;10.78;100.00;100902.38;6000103;28;20042;-66
2022/10/23 07:51:27;;;;;;;11.37;4.97;;;;;;;10.82;100.00;100906.41;6000105;28;20035;-66
2022/10/23 07:54:22;;;;;;;7.80;4.07;;;;;;;10.89;100.00;100899.56;6000588;28;20049;-66
2022/10/23 07:57:18;;;;;;;11.70;4.07;;;;;;;10.97;100.00;100912.13;6000284;28;20301;-66
2022/10/23 08:00:13;;;;;;;10.63;3.72;;;;;;;11.02;100.00;100912.53;6000198;28;20033;-66
2022/10/23 08:03:09;;;;;;;7.03;3.80;;;;;;;11.09;100.00;100889.72;6000450;28;20105;-65
2022/10/23 08:06:06;;;;;;;8.82;3.55;;;;;;;11.20;100.00;100894.84;5994779;28;20043;-66
2022/10/23 08:09:02;;;;;;;12.07;3.83;;;;;;;11.30;100.00;100912.44;6000741;28;20419;-65
2022/10/23 08:11:57;;;;;;;10.48;4.10;;;;;;;11.23;100.00;100898.06;5999870;28;20031;-66
2022/10/23 08:14:52;;;;;;;10.07;4.13;;;;;;;11.41;100.00;100895.47;5993657;28;20118;-66
2022/10/23 08:17:49;;;;;;;6.60;3.60;;;;;;;11.55;100.00;100908.25;5994317;28;20034;-65
2022/10/23 08:20:46;;;;;;;7.90;3.47;;;;;;;11.53;100.00;100904.91;5999749;28;20274;-67
2022/10/23 08:23:41;;;;;;;9.05;4.10;;;;;;;11.61;100.00;100893.53;5999146;28;20042;-66
2022/10/23 08:26:36;;;;;;;9.77;3.80;;;;;;;11.81;100.00;100893.34;5999962;28;20372;-67
2022/10/23 08:29:32;;;;;;;7.10;3.47;;;;;;;11.92;100.00;100901.09;5999565;28;20050;-66
2022/10/23 08:32:29;;;;;;;11.47;3.47;;;;;;;11.83;100.00;100886.03;5999572;28;20050;-66
2022/10/23 08:35:24;;;;;;;13.93;3.28;;;;;;;11.93;100.00;100885.97;6000401;28;20407;-67
2022/10/23 08:38:19;;;;;;;10.87;3.43;;;;;;;12.24;100.00;100894.41;5999923;28;20046;-66
2022/10/23 08:41:36;;;;;;;9.77;3.43;;;;;;;12.28;100.00;100885.16;6014161;28;20027;-66
2022/10/23 08:44:37;;;;;;;12.95;3.05;;;;;;;12.41;100.00;100880.28;5998250;28;20274;-66
2022/10/23 08:47:54;;;;;;;10.52;3.55;;;;;;;12.76;100.00;100888.19;5997297;28;20098;-66
2022/10/23 08:50:55;;;;;;;6.45;2.90;;;;;;;12.70;100.00;100870.19;5997641;28;20035;-67
2022/10/23 08:53:58;;;;;;;7.13;2.85;;;;;;;12.81;100.00;100863.78;5992200;28;20094;-66
2022/10/23 08:56:59;;;;;;;7.78;3.28;;;;;;;12.83;100.00;100872.44;6013030;28;20471;-67
2022/10/23 08:59:57;;;;;;;9.48;3.17;;;;;;;13.17;100.00;100868.00;5998088;28;20437;-66
2022/10/23 09:02:53;;;;;;;6.93;2.50;;;;;;;13.13;98.91;100860.50;5997894;28;20035;-67
2022/10/23 09:05:56;;;;;;;4.93;2.38;;;;;;;13.27;99.64;100862.56;5999251;28;20029;-66
2022/10/23 09:09:21;;;;;;;4.88;2.45;;;;;;;13.27;99.12;100862.56;5998236;28;20117;-67
2022/10/23 09:12:20;;;;;;;6.03;2.80;;;;;;;13.34;99.77;100852.94;5997179;28;20390;-67
2022/10/23 09:15:29;;;;;;;5.45;2.35;;;;;;;13.38;98.96;100848.94;5998015;28;20031;-66
2022/10/23 09:18:24;;;;;;;12.25;3.45;;;;;;;13.64;98.75;100860.38;5988116;28;20498;-67
2022/10/23 09:21:24;;;;;;;8.60;2.70;;;;;;;13.64;98.03;100860.38;5994937;28;20031;-66
2022/10/23 09:24:22;;;;;;;5.95;2.47;;;;;;;13.80;97.74;100875.59;5998953;28;20038;-67
2022/10/23 09:27:17;;;;;;;8.23;3.08;;;;;;;13.83;97.58;100860.09;5999033;28;20425;-66
2022/10/23 09:30:27;;;;;;;10.27;2.90;;;;;;;13.83;96.85;100851.25;5998542;28;20042;-66
2022/10/23 09:33:26;;;;;;;4.43;2.35;;;;;;;14.07;97.21;100865.47;5999019;28;20034;-66
2022/10/23 09:36:27;;;;;;;4.63;2.17;;;;;;;14.25;96.26;100852.81;5989782;28;20046;-66
2022/10/23 09:39:35;;;;;;;5.40;2.28;;;;;;;14.29;95.33;100848.00;5996675;28;20089;-66
2022/10/23 09:42:31;;;;;;;9.18;2.53;;;;;;;14.27;95.57;100852.63;5998369;28;20570;-66
2022/10/23 09:45:32;;;;;;;5.40;2.23;;;;;;;14.57;94.77;100852.00;5998788;28;20031;-67
2022/10/23 09:48:27;;;;;;;9.32;2.60;;;;;;;14.59;93.91;100873.19;5998954;28;20309;-66
2022/10/23 09:51:23;;;;;;;5.70;2.35;;;;;;;14.59;93.43;100857.19;5992899;28;20051;-67
2022/10/23 09:54:22;;;;;;;6.20;2.50;;;;;;;14.87;92.49;100861.13;5998858;28;20031;-67
2022/10/23 09:57:34;;;;;;;5.55;2.78;;;;;;;15.05;91.07;100875.13;5997458;28;20285;-66
2022/10/23 10:00:29;;;;;;;8.48;2.08;;;;;;;15.02;91.27;100867.44;5998265;28;20095;-67
2022/10/23 10:03:25;;;;;;;9.13;2.00;;;;;;;14.94;90.85;100855.94;5998592;28;20041;-66
2022/10/23 10:06:24;;;;;;;8.03;2.40;;;;;;;14.91;91.26;100862.47;5998347;28;20082;-67
2022/10/23 10:09:19;;;;;;;4.95;2.35;;;;;;;15.04;91.89;100867.25;5997985;28;20126;-66
2022/10/23 10:12:47;;;;;;;5.73;2.67;;;;;;;15.07;90.88;100873.09;5998112;28;20027;-67
2022/10/23 10:15:49;;;;;;;6.65;2.50;;;;;;;15.01;91.01;100857.75;5989525;28;20046;-66
2022/10/23 10:18:49;;;;;;;5.47;2.33;;;;;;;14.86;91.48;100851.47;5998258;28;20038;-67
2022/10/23 10:22:08;;;;;;;5.88;1.92;;;;;;;14.82;91.48;100850.97;5996714;28;20114;-66
2022/10/23 10:25:48;;;;;;;9.15;2.20;;;;;;;14.80;91.68;100844.97;5996336;28;20117;-66
2022/10/23 10:29:05;;;;;;;6.65;2.05;;;;;;;14.89;91.78;100837.78;5989851;28;20505;-66
2022/10/23 10:32:18;;;;;;;7.63;2.08;;;;;;;15.25;90.16;100827.44;5998014;28;20031;-67
2022/10/23 10:35:25;;;;;;;5.70;2.00;;;;;;;15.23;90.48;100824.13;5997249;28;20046;-67
2022/10/23 10:38:33;;;;;;;7.95;2.30;;;;;;;15.45;89.67;100802.81;5998565;28;20049;-67
2022/10/23 10:41:57;;;;;;;7.68;2.03;;;;;;;15.42;88.91;100792.47;5994370;28;20038;-66
2022/10/23 10:45:24;;;;;;;7.78;2.00;;;;;;;15.28;90.36;100805.72;5997460;28;20042;-66
2022/10/23 10:48:20;;;;;;;6.25;2.00;;;;;;;15.16;91.91;100802.63;5999695;28;20554;-66
2022/10/23 10:51:42;;;;;;;7.57;1.87;;;;;;;15.22;92.63;100790.41;6001828;28;20030;-67
2022/10/23 10:55:10;;;;;;;3.78;1.95;;;;;;;15.30;91.35;100785.84;6002328;28;20450;-67
2022/10/23 10:58:11;;;;;;;5.80;2.15;;;;;;;15.48;91.01;100783.78;5988546;28;20061;-67
2022/10/23 11:01:48;;;;;;;9.32;2.22;;;;;;;15.45;91.07;100775.25;6001692;28;20031;-66
2022/10/23 11:04:52;;;;;;;4.70;1.85;;;;;;;15.75;89.27;100776.25;5965162;28;20057;-66
2022/10/23 11:07:58;;;;;;;5.18;2.10;;;;;;;15.76;89.43;100764.56;6000646;28;20034;-67
2022/10/23 11:10:58;;;;;;;6.35;1.85;;;;;;;16.17;88.83;100776.59;5999920;28;20507;-66
2022/10/23 11:13:54;;;;;;;4.65;2.00;;;;;;;16.16;87.73;100756.22;6001274;28;20070;-66
2022/10/23 11:17:06;;;;;;;10.65;5.93;;;;;;;16.33;87.78;100768.44;6001381;28;20528;-67
2022/10/23 11:20:09;;;;;;;5.78;2.20;;;;;;;16.24;87.60;100766.84;6001399;28;20101;-67
2022/10/23 11:23:39;;;;;;;11.90;7.65;;;;;;;16.23;88.64;100753.63;6000573;28;20101;-67
2022/10/23 11:26:43;;;;;;;5.57;2.45;;;;;;;16.04;88.11;100750.44;6001765;28;20114;-67
2022/10/23 11:29:50;;;;;;;7.05;4.55;;;;;;;16.16;87.98;100748.19;6001068;28;20145;-67
2022/10/23 11:33:23;;;;;;;3.58;1.90;;;;;;;16.11;87.92;100739.88;5998265;28;20038;-66
2022/10/23 11:36:40;;;;;;;6.05;1.98;;;;;;;16.13;86.80;100727.13;6001583;28;20046;-66
2022/10/23 11:39:52;;;;;;;7.50;3.25;;;;;;;16.08;87.25;100726.84;5993085;28;20402;-66
2022/10/23 11:42:48;;;;;;;5.32;2.22;;;;;;;16.34;87.15;100718.38;5999716;28;20383;-67
2022/10/23 11:45:43;;;;;;;6.80;2.78;;;;;;;16.45;86.35;100723.28;6001212;28;20104;-66
2022/10/23 11:48:41;;;;;;;5.93;2.67;;;;;;;16.60;86.03;100719.63;5998766;28;20360;-66
2022/10/23 11:51:38;;;;;;;6.55;1.92;;;;;;;16.41;86.23;100716.66;6000441;28;20034;-66
2022/10/23 11:54:35;;;;;;;9.40;3.33;;;;;;;16.55;85.96;100711.31;5999277;28;20118;-66
2022/10/23 11:57:30;;;;;;;10.57;2.20;;;;;;;16.76;84.67;100699.03;6000773;28;20030;-65
2022/10/23 12:00:29;;;;;;;9.33;2.37;;;;;;;17.20;83.69;100700.59;5998411;28;20062;-65
2022/10/23 12:03:29;;;;;;;7.68;2.25;;;;;;;17.13;82.68;100683.63;6000064;28;20042;-64
2022/10/23 12:06:38;;;;;;;17.55;2.40;;;;;;;17.21;82.86;100690.72;6000525;28;20045;-65
2022/10/23 12:09:45;;;;;;;12.13;2.10;;;;;;;17.24;82.81;100682.31;6000711;28;20045;-65
2022/10/23 12:12:42;;;;;;;7.47;2.40;;;;;;;17.30;82.81;100662.78;5998723;28;20043;-65
2022/10/23 12:15:37;;;;;;;6.03;2.45;;;;;;;17.39;81.91;100645.56;6000080;28;20034;-64
2022/10/23 12:18:32;;;;;;;4.80;2.03;;;;;;;17.17;82.48;100659.97;6000256;28;20474;-64
2022/10/23 12:21:33;;;;;;;5.13;1.83;;;;;;;17.21;82.84;100639.81;5998864;28;20038;-65
2022/10/23 12:24:46;;;;;;;5.80;2.00;;;;;;;17.54;82.23;100653.56;5999979;28;20118;-64
2022/10/23 12:27:45;;;;;;;5.53;1.83;;;;;;;17.54;82.43;100658.91;5998521;28;20027;-66
2022/10/23 12:31:17;;;;;;;6.45;2.20;;;;;;;17.55;82.96;100642.66;5999457;28;20118;-65
2022/10/23 12:34:34;;;;;;;6.57;1.70;;;;;;;17.70;82.69;100638.03;5999971;28;20034;-65
2022/10/23 12:37:44;;;;;;;9.27;1.85;;;;;;;17.65;82.44;100629.75;5999541;28;20035;-65
2022/10/23 12:40:44;;;;;;;4.78;2.38;;;;;;;17.69;82.58;100631.00;5999034;28;20620;-64
2022/10/23 12:43:41;;;;;;;5.60;2.10;;;;;;;17.62;82.67;100618.56;5998448;28;20038;-65
2022/10/23 12:46:41;;;;;;;5.97;2.40;;;;;;;17.65;83.58;100621.69;5998011;28;20078;-65
2022/10/23 12:49:36;;;;;;;6.68;2.00;;;;;;;17.65;82.40;100608.28;5982435;28;20065;-64
2022/10/23 12:52:34;;;;;;;5.10;2.23;;;;;;;17.45;82.08;100615.28;5998327;28;20381;-64
2022/10/23 12:55:44;;;;;;;6.25;2.15;;;;;;;17.49;83.09;100605.84;5997194;28;20094;-65
2022/10/23 12:58:46;;;;;;;5.95;2.10;;;;;;;17.76;83.32;100609.59;5998450;28;20031;-65
2022/10/23 13:01:42;;;;;;;9.20;1.90;;;;;;;18.01;81.95;100591.19;5997578;28;20129;-66
2022/10/23 13:04:38;;;;;;;6.05;1.88;;;;;;;18.19;79.95;100583.44;5999150;28;20442;-66
2022/10/23 13:07:36;;;;;;;4.80;1.70;;;;;;;18.13;81.30;100594.97;5997476;28;20437;-65
2022/10/23 13:10:32;;;;;;;4.05;1.73;;;;;;;18.17;79.41;100574.78;5989395;28;20471;-66
2022/10/23 13:13:27;;;;;;;4.75;2.28;;;;;;;18.05;78.53;100560.25;5995982;28;20066;-66
2022/10/23 13:16:25;;;;;;;7.72;2.40;;;;;;;18.14;78.51;100561.75;5998925;28;20035;-66
2022/10/23 13:19:22;;;;;;;6.00;2.15;;;;;;;18.04;78.89;100558.59;5998986;28;20038;-66
2022/10/23 13:22:20;;;;;;;5.70;2.22;;;;;;;17.92;79.25;100549.44;5998409;28;20054;-65
2022/10/23 13:25:30;;;;;;;5.18;1.80;;;;;;;17.84;80.56;100559.31;5998807;28;20060;-65
2022/10/23 13:28:40;;;;;;;5.43;2.78;;;;;;;17.90;81.43;100559.53;5998496;28;20379;-65
2022/10/23 13:31:36;;;;;;;4.63;2.45;;;;;;;17.93;81.58;100553.78;5996986;28;20339;-65
2022/10/23 13:34:31;;;;;;;3.87;2.00;;;;;;;17.98;82.04;100533.38;5997350;28;20037;-66
2022/10/23 13:37:28;;;;;;;11.10;2.40;;;;;;;17.98;81.49;100532.56;5997247;28;20618;-65
2022/10/23 13:40:26;;;;;;;5.03;1.70;;;;;;;18.07;81.34;100540.25;5997923;28;20069;-65
2022/10/23 13:43:23;;;;;;;8.32;3.70;;;;;;;18.02;80.99;100520.41;5998499;28;20039;-65
2022/10/23 13:46:21;;;;;;;29.42;12.77;;;;;;;18.16;80.93;100531.00;5997535;28;20038;-65
2022/10/23 13:49:17;;;;;;;91.78;42.05;;;;;;;18.31;80.84;100525.50;5998377;28;20489;-65